Time;durP1;ratioP1;P1;durP2;ratioP2;P2;SDS_P1;SDS_P2;PMS_P1;PMS_P2;Temp;Humidity;BMP_temperature;BMP_pressure;BME280_temperature;BME280_humidity;BME280_pressure;Samples;Min_cycle;Max_cycle;Signal;HPM_P1;HPM_P2
2022/10/16 00:01:10;;;;;;;3.47;2.63;;;18.80;99.90;;;;;;4146848;28;20676;-76
2022/10/16 00:03:13;;;;;;;3.95;2.50;;;18.80;99.90;;;;;;4146917;28;20274;-77
2022/10/16 00:05:15;;;;;;;3.97;2.42;;;18.80;99.90;;;;;;4147699;28;20226;-76
2022/10/16 00:07:17;;;;;;;3.72;2.45;;;18.80;99.90;;;;;;4147264;28;20615;-77
2022/10/16 00:09:20;;;;;;;3.17;2.38;;;18.80;99.90;;;;;;4147179;28;20225;-76
2022/10/16 00:11:24;;;;;;;3.35;2.35;;;18.80;99.90;;;;;;4145500;28;20217;-77
2022/10/16 00:13:27;;;;;;;3.20;2.20;;;18.80;99.90;;;;;;4147023;28;20221;-77
2022/10/16 00:15:30;;;;;;;4.38;2.33;;;18.80;99.90;;;;;;4146699;28;20271;-76
2022/10/16 00:17:32;;;;;;;3.03;2.22;;;18.80;99.90;;;;;;4147178;28;20328;-77
2022/10/16 00:19:35;;;;;;;2.63;2.28;;;18.80;99.90;;;;;;4147252;28;20225;-77
2022/10/16 00:21:37;;;;;;;2.83;2.17;;;18.80;99.90;;;;;;4147067;28;20224;-77
2022/10/16 00:23:39;;;;;;;3.17;2.38;;;18.80;99.90;;;;;;4147350;28;20225;-77
2022/10/16 00:25:42;;;;;;;2.90;2.20;;;18.80;99.90;;;;;;4134047;28;20221;-76
2022/10/16 00:27:44;;;;;;;2.90;2.60;;;18.80;99.90;;;;;;4145882;28;20217;-77
2022/10/16 00:29:50;;;;;;;3.10;2.45;;;18.80;99.90;;;;;;4147233;28;20303;-77
2022/10/16 00:31:52;;;;;;;3.65;2.63;;;18.80;99.90;;;;;;4135414;28;20279;-77
2022/10/16 00:33:55;;;;;;;3.85;2.33;;;18.80;99.90;;;;;;4146844;28;20283;-77
2022/10/16 00:35:58;;;;;;;3.00;2.55;;;18.80;99.90;;;;;;4147047;28;20213;-76
2022/10/16 00:38:01;;;;;;;3.10;2.50;;;18.80;99.90;;;;;;4146920;28;20245;-76
2022/10/16 00:40:03;;;;;;;2.95;2.22;;;18.80;99.90;;;;;;4146735;28;20233;-76
2022/10/16 00:42:06;;;;;;;4.45;3.00;;;18.80;99.90;;;;;;4146796;28;20631;-76
2022/10/16 00:44:41;;;;;;;3.28;2.13;;;18.80;99.90;;;;;;4137587;28;20222;-76
2022/10/16 00:46:45;;;;;;;3.25;2.20;;;18.80;99.90;;;;;;4146735;28;20739;-76
2022/10/16 00:48:52;;;;;;;2.67;2.22;;;18.80;99.90;;;;;;4147033;28;20643;-76
2022/10/16 00:50:54;;;;;;;3.60;2.50;;;18.80;99.90;;;;;;4146955;28;20217;-76
2022/10/16 00:52:57;;;;;;;2.63;2.40;;;18.80;99.90;;;;;;4146411;28;20618;-76
2022/10/16 00:55:02;;;;;;;2.78;2.30;;;18.80;99.90;;;;;;4135306;28;20229;-76
2022/10/16 00:57:07;;;;;;;3.67;2.55;;;18.80;99.90;;;;;;4143901;28;20303;-75
2022/10/16 00:59:16;;;;;;;2.95;2.30;;;18.80;99.90;;;;;;4141420;28;20229;-77
2022/10/16 01:01:18;;;;;;;3.75;2.47;;;18.80;99.90;;;;;;4143867;28;20336;-76
2022/10/16 01:03:28;;;;;;;2.85;2.33;;;18.80;99.90;;;;;;4146271;28;20225;-76
2022/10/16 01:05:39;;;;;;;3.15;2.20;;;18.80;99.90;;;;;;4147948;28;20274;-76
2022/10/16 01:07:51;;;;;;;2.47;2.28;;;18.80;99.90;;;;;;4146790;28;20715;-76
2022/10/16 01:10:05;;;;;;;2.72;2.42;;;18.80;99.90;;;;;;4145632;28;20220;-76
2022/10/16 01:12:11;;;;;;;4.13;2.38;;;18.80;99.90;;;;;;4138752;28;20561;-76
2022/10/16 01:14:23;;;;;;;4.03;2.80;;;18.80;99.90;;;;;;4146048;28;20298;-76
2022/10/16 01:16:33;;;;;;;3.42;2.30;;;18.80;99.90;;;;;;4146445;28;20611;-77
2022/10/16 01:18:44;;;;;;;3.75;2.85;;;18.80;99.90;;;;;;4145084;28;20271;-76
2022/10/16 01:20:51;;;;;;;3.58;2.33;;;18.70;99.90;;;;;;4153508;28;20291;-76
2022/10/16 01:23:14;;;;;;;2.92;2.20;;;18.70;99.90;;;;;;4145826;28;20643;-76
2022/10/16 01:25:25;;;;;;;3.08;2.45;;;18.80;99.90;;;;;;4140740;28;20229;-76
2022/10/16 01:27:31;;;;;;;3.05;2.22;;;18.80;99.90;;;;;;4141301;28;20254;-75
2022/10/16 01:29:37;;;;;;;3.00;2.22;;;18.80;99.90;;;;;;4146000;28;20424;-75
2022/10/16 01:31:42;;;;;;;3.03;2.50;;;18.70;99.90;;;;;;4137300;28;20222;-76
2022/10/16 01:33:48;;;;;;;4.30;2.85;;;18.70;99.90;;;;;;4138400;28;20220;-77
2022/10/16 01:35:57;;;;;;;3.03;2.20;;;18.70;99.90;;;;;;4146190;28;20225;-76
2022/10/16 01:38:04;;;;;;;2.60;2.25;;;18.80;99.90;;;;;;4145881;28;20590;-77
2022/10/16 01:40:11;;;;;;;3.63;2.33;;;18.70;99.90;;;;;;4145971;28;20340;-76
2022/10/16 01:42:17;;;;;;;3.22;2.30;;;18.70;99.90;;;;;;4145829;28;20272;-77
2022/10/16 01:44:26;;;;;;;2.85;2.35;;;18.70;99.90;;;;;;4146204;28;20556;-76
2022/10/16 01:46:30;;;;;;;3.00;2.30;;;18.70;99.90;;;;;;4143245;28;20271;-77
2022/10/16 01:48:33;;;;;;;2.35;2.13;;;18.70;99.90;;;;;;4145769;28;20220;-76
2022/10/16 01:50:40;;;;;;;3.03;2.17;;;18.70;99.90;;;;;;4141366;28;20628;-76
2022/10/16 01:52:45;;;;;;;3.03;2.38;;;18.70;99.90;;;;;;4145672;28;20228;-76
2022/10/16 01:54:50;;;;;;;2.40;2.08;;;18.70;99.90;;;;;;4145915;28;20221;-77
2022/10/16 01:56:53;;;;;;;3.22;2.33;;;18.70;99.90;;;;;;4145742;28;20225;-77
2022/10/16 01:58:59;;;;;;;3.30;2.40;;;18.70;99.90;;;;;;4144583;28;20241;-76
2022/10/16 02:01:05;;;;;;;3.28;2.20;;;18.70;99.90;;;;;;4145746;28;20221;-76
2022/10/16 02:03:09;;;;;;;2.40;2.20;;;18.70;99.90;;;;;;4145503;28;20267;-77
2022/10/16 02:05:17;;;;;;;3.15;2.42;;;18.70;99.90;;;;;;4145807;28;20267;-77
2022/10/16 02:07:19;;;;;;;3.03;2.17;;;18.70;99.90;;;;;;4140481;28;20216;-76
2022/10/16 02:09:21;;;;;;;2.35;2.10;;;18.70;99.90;;;;;;4146046;28;20221;-77
2022/10/16 02:11:24;;;;;;;2.95;2.38;;;18.70;99.90;;;;;;4145413;28;20221;-77
2022/10/16 02:13:31;;;;;;;3.40;2.20;;;18.70;99.90;;;;;;4145516;28;20229;-76
2022/10/16 02:15:33;;;;;;;2.25;2.00;;;18.70;99.90;;;;;;4145564;28;20263;-77
2022/10/16 02:17:37;;;;;;;2.50;2.30;;;18.70;99.90;;;;;;4145964;28;20274;-76
2022/10/16 02:19:39;;;;;;;3.47;2.60;;;18.70;99.90;;;;;;4146037;28;20224;-77
2022/10/16 02:21:47;;;;;;;2.38;2.13;;;18.70;99.90;;;;;;4145764;28;20225;-76
2022/10/16 02:24:01;;;;;;;3.28;2.13;;;18.70;99.90;;;;;;4147551;28;20217;-77
2022/10/16 02:26:07;;;;;;;2.85;2.28;;;18.70;99.90;;;;;;4147910;28;20284;-76
2022/10/16 02:28:14;;;;;;;2.78;2.00;;;18.70;99.90;;;;;;4147339;28;20271;-76
2022/10/16 02:30:23;;;;;;;2.88;2.35;;;18.70;99.90;;;;;;4147587;28;20217;-76
2022/10/16 02:32:30;;;;;;;2.85;2.25;;;18.70;99.90;;;;;;4146327;28;20224;-76
2022/10/16 02:34:35;;;;;;;2.55;2.00;;;18.70;99.90;;;;;;4158104;28;20221;-76
2022/10/16 02:36:37;;;;;;;2.72;2.47;;;18.70;99.90;;;;;;4147596;28;20307;-77
2022/10/16 02:38:41;;;;;;;2.70;2.38;;;18.70;99.90;;;;;;4145908;28;20249;-76
2022/10/16 02:40:44;;;;;;;2.67;2.20;;;18.70;99.90;;;;;;4146747;28;20274;-76
2022/10/16 02:42:50;;;;;;;2.63;2.08;;;18.70;99.90;;;;;;4147221;28;20263;-76
2022/10/16 02:44:53;;;;;;;4.05;2.55;;;18.70;99.90;;;;;;4145994;28;20229;-76
2022/10/16 02:46:55;;;;;;;2.40;2.20;;;18.70;99.90;;;;;;4144970;28;20221;-76
2022/10/16 02:48:57;;;;;;;3.80;2.40;;;18.70;99.90;;;;;;4146480;28;20244;-76
2022/10/16 02:51:01;;;;;;;3.20;2.10;;;18.70;99.90;;;;;;4147489;28;20217;-76
2022/10/16 02:53:03;;;;;;;2.65;2.38;;;18.70;99.90;;;;;;4147498;28;20251;-76
2022/10/16 02:55:07;;;;;;;2.55;2.05;;;18.70;99.90;;;;;;4146425;28;20233;-76
2022/10/16 02:57:09;;;;;;;2.65;2.10;;;18.70;99.90;;;;;;4145312;28;20225;-76
2022/10/16 02:59:11;;;;;;;3.25;2.45;;;18.70;99.90;;;;;;4144829;28;20303;-76
2022/10/16 03:01:16;;;;;;;2.65;2.13;;;18.70;99.90;;;;;;4147174;28;20641;-76
2022/10/16 03:03:18;;;;;;;2.45;2.22;;;18.70;99.90;;;;;;4146800;28;20283;-76
2022/10/16 03:05:20;;;;;;;3.35;2.20;;;18.70;99.90;;;;;;4146597;28;20283;-76
2022/10/16 03:07:24;;;;;;;3.00;2.40;;;18.70;99.90;;;;;;4146643;28;20229;-76
2022/10/16 03:09:26;;;;;;;2.83;2.45;;;18.70;99.90;;;;;;4146983;28;20220;-76
2022/10/16 03:11:29;;;;;;;2.90;2.10;;;18.70;99.90;;;;;;4144235;28;20229;-76
2022/10/16 03:13:31;;;;;;;3.45;2.35;;;18.70;99.90;;;;;;4145557;28;20225;-76
2022/10/16 03:15:33;;;;;;;3.33;1.83;;;18.70;99.90;;;;;;4146922;28;20855;-76
2022/10/16 03:17:36;;;;;;;3.80;2.40;;;18.70;99.90;;;;;;4146898;28;20267;-76
2022/10/16 03:19:38;;;;;;;2.22;1.92;;;18.70;99.90;;;;;;4146442;28;20248;-76
2022/10/16 03:21:40;;;;;;;2.63;2.30;;;18.70;99.90;;;;;;4146703;28;20225;-76
2022/10/16 03:23:44;;;;;;;4.30;2.47;;;18.60;99.90;;;;;;4146320;28;20668;-76
2022/10/16 03:25:46;;;;;;;2.30;2.10;;;18.70;99.90;;;;;;4146355;28;20725;-75
2022/10/16 03:27:48;;;;;;;2.72;2.22;;;18.70;99.90;;;;;;4145943;28;20229;-76
2022/10/16 03:29:51;;;;;;;3.40;1.92;;;18.60;99.90;;;;;;4145747;28;20259;-76
2022/10/16 03:31:53;;;;;;;2.10;1.90;;;18.70;99.90;;;;;;4144424;28;20221;-76
2022/10/16 03:33:55;;;;;;;3.17;2.10;;;18.70;99.90;;;;;;4146404;28;20229;-76
2022/10/16 03:35:57;;;;;;;3.08;2.40;;;18.70;99.90;;;;;;4146193;28;20221;-76
2022/10/16 03:38:00;;;;;;;2.47;2.28;;;18.60;99.90;;;;;;4146600;28;20669;-76
2022/10/16 03:40:04;;;;;;;4.13;2.13;;;18.60;99.90;;;;;;4146335;28;20252;-76
2022/10/16 03:42:06;;;;;;;3.03;2.40;;;18.60;99.90;;;;;;4146368;28;20229;-76
2022/10/16 03:44:09;;;;;;;2.38;2.03;;;18.60;99.90;;;;;;4146481;28;20232;-76
2022/10/16 03:46:11;;;;;;;3.08;2.38;;;18.70;99.90;;;;;;4144494;28;20228;-76
2022/10/16 03:48:13;;;;;;;2.53;2.28;;;18.70;99.90;;;;;;4146174;28;20661;-76
2022/10/16 03:50:16;;;;;;;3.30;2.33;;;18.60;99.90;;;;;;4148369;28;20220;-76
2022/10/16 03:52:18;;;;;;;2.72;2.28;;;18.60;99.90;;;;;;4145934;28;20584;-76
2022/10/16 03:54:21;;;;;;;2.63;2.33;;;18.70;99.90;;;;;;4146267;28;20224;-76
2022/10/16 03:56:25;;;;;;;2.47;2.22;;;18.60;99.90;;;;;;4144478;28;20748;-76
2022/10/16 03:58:27;;;;;;;2.40;2.17;;;18.70;99.90;;;;;;4146160;28;20220;-76
2022/10/16 04:00:30;;;;;;;4.32;2.38;;;18.60;99.90;;;;;;4145668;28;20298;-76
2022/10/16 04:02:32;;;;;;;2.83;2.17;;;18.60;99.90;;;;;;4146125;28;20240;-76
2022/10/16 04:04:34;;;;;;;2.65;2.15;;;18.60;99.90;;;;;;4144778;28;20627;-76
2022/10/16 04:06:37;;;;;;;2.88;2.30;;;18.60;99.90;;;;;;4147967;28;20310;-76
2022/10/16 04:08:39;;;;;;;2.65;2.28;;;18.60;99.90;;;;;;4153475;28;20217;-76
2022/10/16 04:10:43;;;;;;;2.97;2.35;;;18.60;99.90;;;;;;4146074;28;20271;-76
2022/10/16 04:12:47;;;;;;;2.60;2.13;;;18.60;99.90;;;;;;4145731;28;20225;-76
2022/10/16 04:14:49;;;;;;;2.60;2.10;;;18.60;99.90;;;;;;4145254;28;20225;-76
2022/10/16 04:16:51;;;;;;;2.70;1.98;;;18.70;99.90;;;;;;4146603;28;20271;-76
2022/10/16 04:18:54;;;;;;;2.75;2.17;;;18.70;99.90;;;;;;4145606;28;20267;-77
2022/10/16 04:20:56;;;;;;;3.22;2.30;;;18.70;99.90;;;;;;4145387;28;20225;-76
2022/10/16 04:22:58;;;;;;;3.33;2.22;;;18.70;99.90;;;;;;4145856;28;20209;-76
2022/10/16 04:25:01;;;;;;;2.30;2.10;;;18.70;99.90;;;;;;4145635;28;20225;-76
2022/10/16 04:27:03;;;;;;;2.78;2.28;;;18.60;99.90;;;;;;4145584;28;20225;-76
2022/10/16 04:29:07;;;;;;;3.67;2.00;;;18.60;99.90;;;;;;4145474;28;20217;-77
2022/10/16 04:31:09;;;;;;;2.47;1.92;;;18.60;99.90;;;;;;4145707;28;20217;-76
2022/10/16 04:33:12;;;;;;;2.80;2.17;;;18.60;99.90;;;;;;4146353;28;20220;-76
2022/10/16 04:35:15;;;;;;;2.10;1.88;;;18.60;99.90;;;;;;4141030;28;20217;-76
2022/10/16 04:37:17;;;;;;;2.33;1.80;;;18.60;99.90;;;;;;4145576;28;20271;-76
2022/10/16 04:39:19;;;;;;;2.42;2.05;;;18.60;99.90;;;;;;4145546;28;20303;-76
2022/10/16 04:41:22;;;;;;;2.63;1.95;;;18.60;99.90;;;;;;4146347;28;20225;-76
2022/10/16 04:43:24;;;;;;;3.80;2.53;;;18.60;99.90;;;;;;4144946;28;20271;-76
2022/10/16 04:45:28;;;;;;;2.88;2.15;;;18.60;99.90;;;;;;4145609;28;20697;-76
2022/10/16 04:47:30;;;;;;;2.70;2.10;;;18.60;99.90;;;;;;4143983;28;20620;-76
2022/10/16 04:49:32;;;;;;;2.95;1.92;;;18.60;99.90;;;;;;4148287;28;20209;-76
2022/10/16 04:51:34;;;;;;;2.47;1.92;;;18.60;99.90;;;;;;4144111;28;20271;-76
2022/10/16 04:53:37;;;;;;;2.13;1.88;;;18.60;99.90;;;;;;4145436;28;20213;-76
2022/10/16 04:55:39;;;;;;;2.08;1.88;;;18.60;99.90;;;;;;4145440;28;20723;-76
2022/10/16 04:57:42;;;;;;;2.22;2.03;;;18.60;99.90;;;;;;4145643;28;20295;-76
2022/10/16 04:59:44;;;;;;;2.42;1.92;;;18.60;99.90;;;;;;4144184;28;20240;-76
2022/10/16 05:01:48;;;;;;;2.72;2.25;;;18.60;99.90;;;;;;4145315;28;20225;-76
2022/10/16 05:03:50;;;;;;;2.20;1.98;;;18.60;99.90;;;;;;4146614;28;20661;-76
2022/10/16 05:05:53;;;;;;;2.45;2.20;;;18.60;99.90;;;;;;4145060;28;20283;-76
2022/10/16 05:07:55;;;;;;;3.25;2.17;;;18.60;99.90;;;;;;4142992;28;20263;-76
2022/10/16 05:09:57;;;;;;;2.53;2.20;;;18.60;99.90;;;;;;4144812;28;20283;-76
2022/10/16 05:12:00;;;;;;;2.55;2.05;;;18.60;99.90;;;;;;4145553;28;20279;-76
2022/10/16 05:14:02;;;;;;;2.22;1.90;;;18.60;99.90;;;;;;4144591;28;20233;-77
2022/10/16 05:16:05;;;;;;;2.72;2.38;;;18.60;99.90;;;;;;4145074;28;20225;-76
2022/10/16 05:18:10;;;;;;;2.95;2.10;;;18.60;99.90;;;;;;4154157;28;20911;-76
2022/10/16 05:20:12;;;;;;;2.05;1.85;;;18.60;99.90;;;;;;4144632;28;20298;-76
2022/10/16 05:22:14;;;;;;;2.38;2.05;;;18.60;99.90;;;;;;4144298;28;20257;-76
2022/10/16 05:24:17;;;;;;;2.55;1.98;;;18.60;99.90;;;;;;4144748;28;20232;-76
2022/10/16 05:26:19;;;;;;;2.30;2.10;;;18.60;99.90;;;;;;4143863;28;20213;-76
2022/10/16 05:28:21;;;;;;;3.05;2.38;;;18.60;99.90;;;;;;4145365;28;20232;-76
2022/10/16 05:30:24;;;;;;;2.00;1.77;;;18.60;99.90;;;;;;4144910;28;20350;-76
2022/10/16 05:32:26;;;;;;;2.45;2.00;;;18.60;99.90;;;;;;4145094;28;20229;-76
2022/10/16 05:34:30;;;;;;;3.05;2.25;;;18.60;99.90;;;;;;4146622;28;20212;-77
2022/10/16 05:36:32;;;;;;;2.22;2.03;;;18.60;99.90;;;;;;4144692;28;20217;-76
2022/10/16 05:38:34;;;;;;;2.10;1.80;;;18.60;99.90;;;;;;4144478;28;20217;-76
2022/10/16 05:40:37;;;;;;;2.35;2.00;;;18.50;99.90;;;;;;4144642;28;20241;-77
2022/10/16 05:42:39;;;;;;;2.47;2.10;;;18.50;99.90;;;;;;4145593;28;20627;-77
2022/10/16 05:44:41;;;;;;;3.03;2.30;;;18.50;99.90;;;;;;4142288;28;20229;-77
2022/10/16 05:46:44;;;;;;;2.38;2.05;;;18.60;99.90;;;;;;4144246;28;20229;-77
2022/10/16 05:48:46;;;;;;;2.40;1.98;;;18.50;99.90;;;;;;4145477;28;20657;-76
2022/10/16 05:50:56;;;;;;;2.03;1.83;;;18.50;99.90;;;;;;4144935;28;20279;-76
2022/10/16 05:52:59;;;;;;;2.28;2.00;;;18.50;99.90;;;;;;4147386;28;20275;-76
2022/10/16 05:55:01;;;;;;;2.55;2.35;;;18.50;99.90;;;;;;4147979;28;20229;-76
2022/10/16 05:57:05;;;;;;;2.65;2.15;;;18.50;99.90;;;;;;4145996;28;20588;-77
2022/10/16 05:59:07;;;;;;;1.90;1.67;;;18.50;99.90;;;;;;4146607;28;20241;-77
2022/10/16 06:01:12;;;;;;;2.55;1.80;;;18.50;99.90;;;;;;4147754;28;20244;-77
2022/10/16 06:03:14;;;;;;;2.35;2.00;;;18.50;99.90;;;;;;4147754;28;20731;-77
2022/10/16 06:05:17;;;;;;;2.75;1.80;;;18.50;99.90;;;;;;4149584;28;20224;-77
2022/10/16 06:07:20;;;;;;;2.85;2.05;;;18.50;99.90;;;;;;4147543;28;20290;-76
2022/10/16 06:09:23;;;;;;;2.47;1.80;;;18.50;99.90;;;;;;4147561;28;20225;-76
2022/10/16 06:11:26;;;;;;;3.97;2.45;;;18.50;99.90;;;;;;4147766;28;20216;-76
2022/10/16 06:13:29;;;;;;;2.63;1.83;;;18.50;99.90;;;;;;4147913;28;20283;-76
2022/10/16 06:15:31;;;;;;;2.00;1.65;;;18.50;99.90;;;;;;4145680;28;20282;-76
2022/10/16 06:17:33;;;;;;;2.15;1.85;;;18.50;99.90;;;;;;4145855;28;20754;-76
2022/10/16 06:19:36;;;;;;;1.70;1.50;;;18.50;99.90;;;;;;4148085;28;20213;-76
2022/10/16 06:21:38;;;;;;;2.22;1.75;;;18.50;99.90;;;;;;4145241;28;20299;-76
2022/10/16 06:23:42;;;;;;;2.00;1.60;;;18.50;99.90;;;;;;4145729;28;20224;-76
2022/10/16 06:25:44;;;;;;;2.55;2.00;;;18.50;99.90;;;;;;4147595;28;20636;-76
2022/10/16 06:27:46;;;;;;;2.80;2.10;;;18.50;99.90;;;;;;4147739;28;20263;-76
2022/10/16 06:29:48;;;;;;;2.47;2.00;;;18.50;99.90;;;;;;4147151;28;20224;-76
2022/10/16 06:31:51;;;;;;;2.97;2.15;;;18.50;99.90;;;;;;4144811;28;20282;-76
2022/10/16 06:33:54;;;;;;;2.90;2.28;;;18.50;99.90;;;;;;4146728;28;20271;-76
2022/10/16 06:36:03;;;;;;;2.53;2.08;;;18.50;99.90;;;;;;4146137;28;20213;-76
2022/10/16 06:38:05;;;;;;;2.80;2.22;;;18.50;99.90;;;;;;4147372;28;20221;-76
2022/10/16 06:40:09;;;;;;;2.58;2.00;;;18.50;99.90;;;;;;4147170;28;20247;-76
2022/10/16 06:42:12;;;;;;;2.72;1.90;;;18.50;99.90;;;;;;4147080;28;20630;-76
2022/10/16 06:44:14;;;;;;;2.30;1.90;;;18.50;99.90;;;;;;4147422;28;20952;-77
2022/10/16 06:46:18;;;;;;;2.13;1.88;;;18.50;99.90;;;;;;4146984;28;20228;-76
2022/10/16 06:48:21;;;;;;;2.67;2.00;;;18.50;99.90;;;;;;4145989;28;20264;-76
2022/10/16 06:50:23;;;;;;;2.55;2.15;;;18.50;99.90;;;;;;4147702;28;20217;-77
2022/10/16 06:52:30;;;;;;;2.35;1.98;;;18.50;99.90;;;;;;4146861;28;20229;-76
2022/10/16 06:54:32;;;;;;;2.42;2.00;;;18.50;99.90;;;;;;4147066;28;20228;-77
2022/10/16 06:56:37;;;;;;;1.70;1.60;;;18.50;99.90;;;;;;4146927;28;20232;-76
2022/10/16 06:58:40;;;;;;;1.77;1.67;;;18.50;99.90;;;;;;4147243;28;20277;-76
2022/10/16 07:00:42;;;;;;;2.20;1.73;;;18.60;99.90;;;;;;4145434;28;20299;-76
2022/10/16 07:02:44;;;;;;;2.75;1.98;;;18.50;99.90;;;;;;4146217;28;20225;-76
2022/10/16 07:04:46;;;;;;;2.90;1.92;;;18.50;99.90;;;;;;4146932;28;20221;-76
2022/10/16 07:06:49;;;;;;;3.47;2.00;;;18.60;99.90;;;;;;4146024;28;20610;-76
2022/10/16 07:08:52;;;;;;;3.00;1.70;;;18.50;99.90;;;;;;4144693;28;20673;-76
2022/10/16 07:11:00;;;;;;;3.10;1.95;;;18.50;99.90;;;;;;4157420;28;20644;-76
2022/10/16 07:13:04;;;;;;;2.53;1.70;;;18.50;99.90;;;;;;4146902;28;20216;-77
2022/10/16 07:15:07;;;;;;;2.30;2.10;;;18.50;99.90;;;;;;4146892;28;20290;-77
2022/10/16 07:17:09;;;;;;;2.05;1.80;;;18.60;99.90;;;;;;4146135;28;20252;-77
2022/10/16 07:19:14;;;;;;;2.13;1.83;;;18.60;99.90;;;;;;4146421;28;20279;-77
2022/10/16 07:21:19;;;;;;;3.28;1.90;;;18.50;99.90;;;;;;4145888;28;20234;-77
2022/10/16 07:23:21;;;;;;;2.42;1.90;;;18.60;99.90;;;;;;4145342;28;20271;-77
2022/10/16 07:25:23;;;;;;;2.42;1.98;;;18.60;99.90;;;;;;4144755;28;20229;-76
2022/10/16 07:27:26;;;;;;;2.10;1.90;;;18.60;99.90;;;;;;4146535;28;20221;-77
2022/10/16 07:29:30;;;;;;;1.65;1.50;;;18.60;99.90;;;;;;4146838;28;20669;-76
2022/10/16 07:31:32;;;;;;;2.92;2.08;;;18.60;99.90;;;;;;4146185;28;20639;-76
2022/10/16 07:33:36;;;;;;;2.20;1.85;;;18.60;99.90;;;;;;4146483;28;20280;-76
2022/10/16 07:35:38;;;;;;;2.03;1.83;;;18.60;99.90;;;;;;4146215;28;20609;-76
2022/10/16 07:37:40;;;;;;;2.10;1.70;;;18.60;99.90;;;;;;4146325;28;21171;-76
2022/10/16 07:39:42;;;;;;;2.45;2.05;;;18.60;99.90;;;;;;4146176;28;20221;-76
2022/10/16 07:41:45;;;;;;;2.95;2.13;;;18.60;99.90;;;;;;4144994;28;20302;-76
2022/10/16 07:43:48;;;;;;;2.35;1.73;;;18.60;99.90;;;;;;4146692;28;20259;-77
2022/10/16 07:45:51;;;;;;;2.42;1.73;;;18.60;99.90;;;;;;4146326;28;20220;-77
2022/10/16 07:47:54;;;;;;;2.10;1.90;;;18.60;99.90;;;;;;4146438;28;20613;-77
2022/10/16 07:49:56;;;;;;;2.83;1.90;;;18.60;99.90;;;;;;4146303;28;20228;-76
2022/10/16 07:51:58;;;;;;;2.80;1.73;;;18.60;99.90;;;;;;4146449;28;20217;-77
2022/10/16 07:54:01;;;;;;;3.13;1.70;;;18.60;99.90;;;;;;4145449;28;20229;-77
2022/10/16 07:56:06;;;;;;;2.05;1.80;;;18.60;99.90;;;;;;4144325;28;20225;-77
2022/10/16 07:58:09;;;;;;;2.38;1.70;;;18.60;99.90;;;;;;4146431;28;20247;-76
2022/10/16 08:00:13;;;;;;;2.17;1.83;;;18.60;99.90;;;;;;4145675;28;20724;-76
2022/10/16 08:02:17;;;;;;;2.42;1.80;;;18.60;99.90;;;;;;4145697;28;20295;-77
2022/10/16 08:04:19;;;;;;;2.70;1.85;;;18.60;99.90;;;;;;4145524;28;20263;-77
2022/10/16 08:06:23;;;;;;;2.60;1.50;;;18.60;99.90;;;;;;4146193;28;20263;-76
2022/10/16 08:08:25;;;;;;;3.53;1.80;;;18.60;99.90;;;;;;4143802;28;20225;-77
2022/10/16 08:10:29;;;;;;;2.33;1.73;;;18.60;99.90;;;;;;4140277;28;20218;-77
2022/10/16 08:12:31;;;;;;;2.05;1.85;;;18.60;99.90;;;;;;4146169;28;20217;-77
2022/10/16 08:14:33;;;;;;;2.72;1.90;;;18.60;99.90;;;;;;4144083;28;20229;-77
2022/10/16 08:16:35;;;;;;;2.22;2.00;;;18.60;99.90;;;;;;4145648;28;20295;-77
2022/10/16 08:18:41;;;;;;;2.33;1.98;;;18.60;99.90;;;;;;4146086;28;20280;-76
2022/10/16 08:20:44;;;;;;;1.70;1.50;;;18.60;99.90;;;;;;4143780;28;20280;-77
2022/10/16 08:22:46;;;;;;;2.10;1.65;;;18.60;99.90;;;;;;4146168;28;20237;-77
2022/10/16 08:24:48;;;;;;;3.13;2.00;;;18.60;99.90;;;;;;4145259;28;20328;-77
2022/10/16 08:26:51;;;;;;;3.03;1.80;;;18.60;99.90;;;;;;4145654;28;20266;-76
2022/10/16 08:28:53;;;;;;;1.98;1.77;;;18.70;99.90;;;;;;4145529;28;20238;-76
2022/10/16 08:30:56;;;;;;;2.30;1.95;;;18.70;99.90;;;;;;4143639;28;20236;-76
2022/10/16 08:32:59;;;;;;;2.03;1.48;;;18.70;99.90;;;;;;4145449;28;20288;-76
2022/10/16 08:35:02;;;;;;;2.55;1.85;;;18.70;99.90;;;;;;4145766;28;20225;-76
2022/10/16 08:37:07;;;;;;;2.15;1.67;;;18.70;99.90;;;;;;4145459;28;20369;-77
2022/10/16 08:39:09;;;;;;;1.42;1.27;;;18.70;99.90;;;;;;4145675;28;20218;-77
2022/10/16 08:41:40;;;;;;;2.40;1.70;;;18.70;99.90;;;;;;4145254;28;20249;-77
2022/10/16 08:44:04;;;;;;;1.83;1.70;;;18.70;99.90;;;;;;4146588;28;20297;-77
2022/10/16 08:46:21;;;;;;;2.67;1.95;;;18.70;99.90;;;;;;4143731;28;20214;-77
2022/10/16 08:48:31;;;;;;;2.92;1.60;;;18.70;99.90;;;;;;4145301;28;20232;-76
2022/10/16 08:50:39;;;;;;;2.45;1.80;;;18.70;99.90;;;;;;4144824;28;20643;-77
2022/10/16 08:52:44;;;;;;;1.67;1.58;;;18.70;99.90;;;;;;4145337;28;20216;-77
2022/10/16 08:54:51;;;;;;;1.77;1.60;;;18.70;99.90;;;;;;4143135;28;20609;-77
2022/10/16 08:56:55;;;;;;;1.75;1.60;;;18.70;99.90;;;;;;4145166;28;20228;-76
2022/10/16 08:58:59;;;;;;;2.22;1.75;;;18.70;99.90;;;;;;4144186;28;20665;-76
2022/10/16 09:01:03;;;;;;;2.15;1.67;;;18.70;99.90;;;;;;4146581;28;20573;-77
2022/10/16 09:03:17;;;;;;;1.55;1.42;;;18.70;99.90;;;;;;4127392;28;20240;-77
2022/10/16 09:05:44;;;;;;;2.05;1.73;;;18.70;99.90;;;;;;4143929;28;20270;-76
2022/10/16 09:07:56;;;;;;;1.90;1.60;;;18.70;99.90;;;;;;4142832;28;20224;-76
2022/10/16 09:10:12;;;;;;;1.88;1.50;;;18.70;99.90;;;;;;4145135;28;20661;-76
2022/10/16 09:12:20;;;;;;;4.47;1.83;;;18.70;99.90;;;;;;4144117;28;20213;-77
2022/10/16 09:14:46;;;;;;;2.08;1.50;;;18.70;99.90;;;;;;4144893;28;20251;-77
2022/10/16 09:16:53;;;;;;;1.70;1.50;;;18.70;99.90;;;;;;4145183;28;20369;-77
2022/10/16 09:19:04;;;;;;;2.53;1.90;;;18.70;99.90;;;;;;4144896;28;20217;-77
2022/10/16 09:21:14;;;;;;;2.25;1.90;;;18.70;99.90;;;;;;4144318;28;20213;-76
2022/10/16 09:23:18;;;;;;;3.13;1.88;;;18.70;99.90;;;;;;4145374;28;20240;-77
2022/10/16 09:25:22;;;;;;;2.15;1.58;;;18.70;99.90;;;;;;4144854;28;20282;-77
2022/10/16 09:27:25;;;;;;;2.58;1.80;;;18.80;99.90;;;;;;4144540;28;20276;-76
2022/10/16 09:29:27;;;;;;;2.30;1.77;;;18.70;99.90;;;;;;4144874;28;20220;-76
2022/10/16 09:31:29;;;;;;;2.15;1.80;;;18.70;99.90;;;;;;4144718;28;20661;-76
2022/10/16 09:33:38;;;;;;;1.95;1.58;;;18.70;99.90;;;;;;4145042;28;20279;-77
2022/10/16 09:35:43;;;;;;;1.45;1.35;;;18.80;99.90;;;;;;4143558;28;20224;-76
2022/10/16 09:37:50;;;;;;;2.22;1.75;;;18.80;99.90;;;;;;4144385;28;20347;-76
2022/10/16 09:39:54;;;;;;;2.42;1.67;;;18.80;99.90;;;;;;4144814;28;20239;-77
2022/10/16 09:41:56;;;;;;;2.95;1.88;;;18.80;99.90;;;;;;4144821;28;20576;-76
2022/10/16 09:44:01;;;;;;;2.88;1.65;;;18.80;99.90;;;;;;4144238;28;20225;-76
2022/10/16 09:46:05;;;;;;;3.20;1.80;;;18.70;99.90;;;;;;4145069;28;20217;-77
2022/10/16 09:48:12;;;;;;;2.40;1.73;;;18.80;99.90;;;;;;4145020;28;20209;-77
2022/10/16 09:50:24;;;;;;;2.03;1.50;;;18.70;99.90;;;;;;4145831;28;20227;-76
2022/10/16 09:52:27;;;;;;;2.70;1.83;;;18.80;99.90;;;;;;4144511;28;20217;-77
2022/10/16 09:54:30;;;;;;;2.13;1.80;;;18.70;99.90;;;;;;4144045;28;20735;-77
2022/10/16 09:56:35;;;;;;;2.20;1.55;;;18.80;99.90;;;;;;4144943;28;20728;-76
2022/10/16 09:58:39;;;;;;;1.83;1.38;;;18.80;99.90;;;;;;4139460;28;20271;-76
2022/10/16 10:00:44;;;;;;;2.35;1.52;;;18.80;99.90;;;;;;4144342;28;20241;-77
2022/10/16 10:02:47;;;;;;;1.58;1.42;;;18.80;99.90;;;;;;4144422;28;20244;-77
2022/10/16 10:04:53;;;;;;;2.35;1.77;;;18.80;99.90;;;;;;4144307;28;20290;-77
2022/10/16 10:06:57;;;;;;;1.95;1.63;;;18.80;99.90;;;;;;4144870;28;20229;-77
2022/10/16 10:09:04;;;;;;;1.90;1.65;;;18.80;99.90;;;;;;4144465;28;20221;-77
2022/10/16 10:11:08;;;;;;;1.70;1.60;;;18.80;99.90;;;;;;4143259;28;20267;-77
2022/10/16 10:13:20;;;;;;;1.85;1.30;;;18.80;99.90;;;;;;4142334;28;20217;-76
2022/10/16 10:15:23;;;;;;;2.10;1.40;;;18.80;99.90;;;;;;4144659;28;21160;-77
2022/10/16 10:17:28;;;;;;;2.20;1.50;;;18.80;99.90;;;;;;4144341;28;20217;-77
2022/10/16 10:19:30;;;;;;;2.13;1.60;;;18.80;99.90;;;;;;4144269;28;20654;-77
2022/10/16 10:21:34;;;;;;;2.15;1.83;;;18.80;99.90;;;;;;4144405;28;20374;-76
2022/10/16 10:23:37;;;;;;;1.75;1.60;;;18.80;99.90;;;;;;4152798;28;20769;-77
2022/10/16 10:25:51;;;;;;;2.40;1.67;;;18.80;99.90;;;;;;4147752;28;20267;-76
2022/10/16 10:28:34;;;;;;;1.95;1.60;;;18.80;99.90;;;;;;4143278;28;20287;-77
2022/10/16 10:30:42;;;;;;;2.17;1.73;;;18.80;99.90;;;;;;4144516;28;20287;-77
2022/10/16 10:32:53;;;;;;;3.05;1.98;;;18.80;99.90;;;;;;4142621;28;20278;-77
2022/10/16 10:35:14;;;;;;;1.73;1.40;;;18.80;99.90;;;;;;4144655;28;20220;-76
2022/10/16 10:37:31;;;;;;;2.15;1.60;;;18.80;99.90;;;;;;4144163;28;20221;-76
2022/10/16 10:39:42;;;;;;;2.38;1.50;;;18.80;99.90;;;;;;4147261;28;20275;-77
2022/10/16 10:42:20;;;;;;;1.90;1.58;;;18.80;99.90;;;;;;4146936;28;20221;-77
2022/10/16 10:44:35;;;;;;;2.20;1.50;;;18.80;99.90;;;;;;4080096;29;20291;-77
2022/10/16 10:46:43;;;;;;;1.95;1.38;;;18.90;99.90;;;;;;4128544;28;20221;-77
2022/10/16 10:49:10;;;;;;;2.60;1.52;;;18.90;99.90;;;;;;4148043;28;20271;-76
2022/10/16 10:51:15;;;;;;;2.35;1.48;;;18.90;99.90;;;;;;4138393;28;20279;-77